Time;durP1;ratioP1;P1;durP2;ratioP2;P2;SDS_P1;SDS_P2;PMS_P1;PMS_P2;Temp;Humidity;BMP_temperature;BMP_pressure;BME280_temperature;BME280_humidity;BME280_pressure;Samples;Min_cycle;Max_cycle;Signal;HPM_P1;HPM_P2
2021/03/11 00:01:07;;;;;;;12.13;8.03;;;;;;;2.26;42.35;100428.22;5051969;28;20209;-71
2021/03/11 00:03:33;;;;;;;14.93;8.30;;;;;;;2.19;42.37;100404.63;5053198;28;20188;-71
2021/03/11 00:05:58;;;;;;;15.53;8.83;;;;;;;2.21;42.81;100386.16;5053414;28;20260;-71
2021/03/11 00:08:23;;;;;;;15.83;8.33;;;;;;;2.17;43.31;100389.78;5051847;28;20197;-71
2021/03/11 00:10:49;;;;;;;13.73;8.33;;;;;;;2.22;43.29;100382.63;5053611;28;20177;-71
2021/03/11 00:13:14;;;;;;;14.27;7.67;;;;;;;2.20;43.70;100374.78;5051900;28;20174;-70
2021/03/11 00:15:41;;;;;;;13.77;8.67;;;;;;;2.18;44.12;100366.03;5051639;28;20169;-70
2021/03/11 00:18:07;;;;;;;15.60;8.33;;;;;;;2.15;44.14;100362.63;5052831;28;20271;-72
2021/03/11 00:20:33;;;;;;;13.30;8.03;;;;;;;2.15;44.24;100366.13;5051633;28;20529;-72
2021/03/11 00:22:58;;;;;;;14.23;8.43;;;;;;;2.15;44.29;100347.69;5035182;28;20227;-72
2021/03/11 00:25:26;;;;;;;12.77;8.30;;;;;;;2.13;44.61;100338.97;5035252;28;20182;-72
2021/03/11 00:27:51;;;;;;;15.90;8.73;;;;;;;2.13;45.05;100327.59;5034770;28;20672;-72
2021/03/11 00:30:17;;;;;;;14.17;9.07;;;;;;;2.15;45.43;100317.88;5035009;28;20184;-72
2021/03/11 00:32:43;;;;;;;13.67;9.03;;;;;;;2.15;45.42;100313.47;5051876;28;20788;-73
2021/03/11 00:35:10;;;;;;;14.00;8.87;;;;;;;2.19;46.05;100301.94;5035130;28;20171;-72
2021/03/11 00:37:36;;;;;;;17.57;9.33;;;;;;;2.23;46.13;100294.84;5053183;28;20190;-71
2021/03/11 00:40:06;;;;;;;13.53;9.30;;;;;;;2.31;45.82;100298.13;5034990;28;20178;-72
2021/03/11 00:42:31;;;;;;;13.70;8.67;;;;;;;2.33;46.57;100279.66;5034995;28;20164;-70
2021/03/11 00:44:56;;;;;;;15.37;9.47;;;;;;;2.35;46.51;100273.44;5052192;28;20637;-70
2021/03/11 00:47:22;;;;;;;15.27;8.67;;;;;;;2.39;46.18;100275.09;5052719;28;20188;-70
2021/03/11 00:49:48;;;;;;;14.43;9.63;;;;;;;2.31;46.80;100258.63;5035179;28;20178;-71
2021/03/11 00:52:13;;;;;;;14.23;8.90;;;;;;;2.38;47.03;100246.16;5052208;28;20563;-71
2021/03/11 00:54:39;;;;;;;15.00;8.97;;;;;;;2.36;47.45;100238.28;5055390;28;20658;-71
2021/03/11 00:57:05;;;;;;;16.30;8.90;;;;;;;2.41;47.64;100227.63;5055168;28;20638;-72
2021/03/11 00:59:30;;;;;;;15.13;9.07;;;;;;;2.42;47.75;100224.09;5055976;28;20179;-71
2021/03/11 01:01:55;;;;;;;20.60;10.07;;;;;;;2.50;47.40;100220.31;5056580;28;20675;-71
2021/03/11 01:04:21;;;;;;;16.07;9.90;;;;;;;2.58;47.54;100213.94;5055482;28;20173;-72
2021/03/11 01:06:46;;;;;;;15.60;10.30;;;;;;;2.60;48.02;100215.66;5056000;28;20170;-72
2021/03/11 01:09:11;;;;;;;17.37;9.90;;;;;;;2.62;47.80;100202.44;5056824;28;20228;-71
2021/03/11 01:11:37;;;;;;;16.87;10.07;;;;;;;2.69;48.26;100194.28;5056380;28;20171;-71
2021/03/11 01:14:02;;;;;;;17.67;10.30;;;;;;;2.73;48.51;100185.38;5055189;28;20179;-71
2021/03/11 01:16:27;;;;;;;16.33;10.57;;;;;;;2.74;48.62;100167.78;5038305;28;20228;-71
2021/03/11 01:18:53;;;;;;;19.63;10.97;;;;;;;2.78;49.06;100154.47;5054894;28;20721;-70
2021/03/11 01:21:18;;;;;;;18.73;10.37;;;;;;;2.81;48.72;100150.88;5055303;28;20241;-70
2021/03/11 01:23:45;;;;;;;16.43;9.70;;;;;;;2.79;49.35;100153.56;5056444;28;20265;-71
2021/03/11 01:26:10;;;;;;;17.80;10.60;;;;;;;2.85;49.50;100139.31;5056770;28;20170;-71
2021/03/11 01:28:35;;;;;;;19.43;10.40;;;;;;;2.87;49.75;100147.16;5056637;28;20205;-71
2021/03/11 01:31:00;;;;;;;18.07;10.47;;;;;;;2.94;50.02;100138.13;5056357;28;20186;-70
2021/03/11 01:33:26;;;;;;;21.53;11.37;;;;;;;2.95;50.32;100150.41;5056221;28;20182;-70
2021/03/11 01:35:51;;;;;;;18.97;11.00;;;;;;;2.95;50.64;100135.44;5054683;28;20288;-71
2021/03/11 01:38:16;;;;;;;17.33;11.23;;;;;;;2.87;50.71;100128.72;5054342;28;20252;-71
2021/03/11 01:40:42;;;;;;;18.93;11.17;;;;;;;2.87;50.91;100126.06;5054544;28;20253;-71
2021/03/11 01:43:07;;;;;;;18.40;11.60;;;;;;;2.87;51.18;100116.41;5055673;28;20299;-71
2021/03/11 01:45:32;;;;;;;23.03;12.63;;;;;;;2.86;51.85;100105.91;5054404;28;20238;-71
2021/03/11 01:47:58;;;;;;;23.67;12.63;;;;;;;2.93;51.98;100088.97;5037412;28;20202;-71
2021/03/11 01:50:23;;;;;;;21.20;12.40;;;;;;;2.93;52.11;100099.50;5055468;28;20277;-70
2021/03/11 01:52:50;;;;;;;21.93;11.63;;;;;;;2.89;52.08;100084.72;5054865;28;20652;-71
2021/03/11 01:55:17;;;;;;;20.33;12.33;;;;;;;2.91;52.75;100098.69;5037630;28;20175;-71
2021/03/11 01:57:43;;;;;;;19.13;11.20;;;;;;;2.92;52.81;100088.09;5054248;28;20209;-71
2021/03/11 02:00:10;;;;;;;21.97;13.20;;;;;;;2.90;53.16;100097.84;5055124;28;20176;-71
2021/03/11 02:02:36;;;;;;;20.57;12.07;;;;;;;2.85;53.66;100094.50;5061241;28;20190;-71
2021/03/11 02:05:04;;;;;;;23.80;12.73;;;;;;;2.90;53.73;100081.16;5053980;28;20175;-71
2021/03/11 02:07:30;;;;;;;22.73;12.27;;;;;;;2.92;53.96;100084.59;5054261;28;20284;-71
2021/03/11 02:09:55;;;;;;;21.33;12.73;;;;;;;2.91;53.82;100080.25;5056046;28;20225;-71
2021/03/11 02:12:45;;;;;;;22.47;12.87;;;;;;;2.92;53.94;100089.88;5037599;28;20208;-71
2021/03/11 02:15:15;;;;;;;24.83;12.70;;;;;;;2.89;54.35;100082.06;5054422;28;20198;-71
2021/03/11 02:17:46;;;;;;;23.00;12.63;;;;;;;2.88;54.42;100078.59;5054156;28;20273;-71
2021/03/11 02:20:23;;;;;;;25.40;12.23;;;;;;;2.91;54.66;100078.47;5037698;28;20171;-71
2021/03/11 02:23:05;;;;;;;22.27;12.50;;;;;;;2.81;55.13;100063.88;5058241;28;20620;-70
2021/03/11 02:25:55;;;;;;;20.43;12.50;;;;;;;2.82;55.72;100058.56;5054633;28;20167;-71
2021/03/11 02:28:37;;;;;;;23.03;12.27;;;;;;;2.77;56.38;100039.41;5055850;28;20673;-70
2021/03/11 02:31:03;;;;;;;22.57;13.47;;;;;;;2.76;57.03;100040.34;5053884;28;20174;-71
2021/03/11 02:33:30;;;;;;;20.90;13.10;;;;;;;2.79;57.27;100036.72;5053932;28;20175;-71
2021/03/11 02:35:57;;;;;;;24.77;14.37;;;;;;;2.66;57.41;100046.81;5053599;28;20185;-71
2021/03/11 02:38:23;;;;;;;27.17;14.73;;;;;;;2.59;57.96;100033.88;5053537;28;20193;-71
2021/03/11 02:40:50;;;;;;;22.87;13.53;;;;;;;2.63;58.15;99998.66;5053223;28;20202;-71
2021/03/11 02:43:15;;;;;;;25.97;14.30;;;;;;;2.68;58.79;100008.13;5054508;28;20210;-71
2021/03/11 02:45:41;;;;;;;21.90;14.07;;;;;;;2.68;58.93;99965.97;5053639;28;20260;-71
2021/03/11 02:48:08;;;;;;;24.63;13.90;;;;;;;2.64;59.24;99995.97;5053274;28;20248;-72
2021/03/11 02:50:36;;;;;;;23.87;13.83;;;;;;;2.65;59.56;99997.69;5053177;28;20528;-71
2021/03/11 02:53:03;;;;;;;24.17;14.80;;;;;;;2.51;59.96;99984.09;5053345;28;20175;-71
2021/03/11 02:55:29;;;;;;;22.63;14.33;;;;;;;2.55;60.53;99980.44;5053025;28;20181;-71
2021/03/11 02:57:55;;;;;;;29.87;15.73;;;;;;;2.45;61.25;99979.03;5035902;28;20226;-71
2021/03/11 03:00:21;;;;;;;24.90;14.90;;;;;;;2.49;61.52;99964.84;5053293;28;20186;-71
2021/03/11 03:02:47;;;;;;;25.13;15.00;;;;;;;2.50;61.37;99950.75;5053062;28;20174;-71
2021/03/11 03:05:18;;;;;;;26.03;14.73;;;;;;;2.48;61.85;99952.59;5052694;28;20225;-71
2021/03/11 03:07:45;;;;;;;23.07;14.87;;;;;;;2.46;61.99;99947.38;5053809;28;20194;-70
2021/03/11 03:10:15;;;;;;;23.67;15.30;;;;;;;2.40;63.27;99949.34;5052993;28;20181;-71
2021/03/11 03:12:41;;;;;;;30.23;16.20;;;;;;;2.25;63.72;99945.47;5052688;28;20170;-71
2021/03/11 03:15:07;;;;;;;30.00;15.97;;;;;;;2.22;64.36;99944.69;5052412;28;20178;-72
2021/03/11 03:17:33;;;;;;;28.67;16.73;;;;;;;2.09;65.67;99939.81;5035261;28;20197;-72
2021/03/11 03:19:59;;;;;;;26.13;16.80;;;;;;;2.03;66.51;99928.63;5052386;28;20307;-72
2021/03/11 03:22:26;;;;;;;38.97;17.70;;;;;;;1.95;67.06;99904.34;5052303;28;20323;-72
2021/03/11 03:24:52;;;;;;;28.93;17.87;;;;;;;1.82;68.58;99909.97;5052447;28;20235;-72
2021/03/11 03:27:18;;;;;;;34.67;18.90;;;;;;;1.76;70.00;99875.97;5052457;28;20194;-72
2021/03/11 03:29:43;;;;;;;30.97;17.70;;;;;;;1.74;70.88;99871.69;5035566;28;20175;-71
2021/03/11 03:32:08;;;;;;;32.80;17.97;;;;;;;1.68;71.63;99864.00;5052252;28;20176;-72
2021/03/11 03:34:34;;;;;;;28.13;17.83;;;;;;;1.66;72.08;99852.66;5052507;28;20195;-71
2021/03/11 03:36:59;;;;;;;32.67;18.90;;;;;;;1.69;71.97;99842.91;5052156;28;20173;-72
2021/03/11 03:39:24;;;;;;;39.93;20.20;;;;;;;1.65;73.09;99819.38;5053270;28;20218;-72
2021/03/11 03:41:52;;;;;;;35.67;20.70;;;;;;;1.55;73.81;99809.16;5053099;28;20192;-71
2021/03/11 03:44:19;;;;;;;35.53;20.67;;;;;;;1.50;74.10;99797.94;5052542;28;20264;-72
2021/03/11 03:46:46;;;;;;;37.03;19.97;;;;;;;1.53;74.94;99774.16;5035237;28;20171;-72
2021/03/11 03:49:12;;;;;;;36.70;20.43;;;;;;;1.62;74.28;99777.38;5051886;28;20191;-71
2021/03/11 03:51:41;;;;;;;36.83;21.60;;;;;;;1.53;74.33;99776.78;5035128;28;20663;-71
2021/03/11 03:54:14;;;;;;;37.47;20.47;;;;;;;1.56;74.68;99766.16;5035125;28;20176;-71
2021/03/11 03:56:42;;;;;;;35.93;20.23;;;;;;;1.62;73.97;99758.97;5053276;28;20268;-71
2021/03/11 03:59:17;;;;;;;38.67;21.33;;;;;;;1.64;74.70;99751.91;5051579;28;20579;-72
2021/03/11 04:01:43;;;;;;;40.50;22.37;;;;;;;1.58;75.63;99770.50;5051631;28;20214;-70
2021/03/11 04:04:10;;;;;;;37.07;21.57;;;;;;;1.63;75.73;99765.97;5051649;28;20173;-71
2021/03/11 04:06:37;;;;;;;38.27;21.67;;;;;;;1.62;76.00;99751.94;5051893;28;20172;-70
2021/03/11 04:09:03;;;;;;;38.33;21.60;;;;;;;1.63;76.93;99739.66;5051710;28;20671;-70
2021/03/11 04:11:29;;;;;;;41.53;21.67;;;;;;;1.63;76.63;99739.66;5051763;28;20548;-69
2021/03/11 04:13:55;;;;;;;39.27;23.50;;;;;;;1.53;78.09;99760.16;5051989;28;20172;-70
2021/03/11 04:16:21;;;;;;;39.80;22.53;;;;;;;1.48;78.08;99720.81;5052524;28;20302;-70
2021/03/11 04:18:48;;;;;;;41.87;23.57;;;;;;;1.57;77.40;99714.44;5053351;28;20200;-71
2021/03/11 04:21:13;;;;;;;41.47;21.60;;;;;;;1.62;77.33;99727.41;5051850;28;20192;-71
2021/03/11 04:23:39;;;;;;;43.33;24.47;;;;;;;1.68;77.79;99709.66;5052010;28;20176;-70
2021/03/11 04:26:05;;;;;;;42.37;22.63;;;;;;;1.66;78.12;99658.00;5053902;28;20298;-71
2021/03/11 04:28:31;;;;;;;43.90;23.47;;;;;;;1.69;77.57;99681.56;5053120;28;20555;-71
2021/03/11 04:30:57;;;;;;;41.10;24.00;;;;;;;1.71;77.88;99669.22;5039842;28;20211;-72
2021/03/11 04:33:22;;;;;;;38.00;21.87;;;;;;;1.71;77.72;99656.94;5057614;28;20641;-72
2021/03/11 04:35:48;;;;;;;42.60;23.63;;;;;;;1.72;77.92;99636.75;5067299;28;20167;-72
2021/03/11 04:38:15;;;;;;;45.83;25.93;;;;;;;1.75;78.17;99640.13;5066225;28;20569;-71
2021/03/11 04:40:42;;;;;;;41.17;23.40;;;;;;;1.75;79.22;99618.22;5056477;28;20298;-71
2021/03/11 04:43:07;;;;;;;42.03;23.83;;;;;;;1.80;78.24;99626.78;5040308;28;20631;-71
2021/03/11 04:45:32;;;;;;;45.33;23.97;;;;;;;1.81;78.60;99617.97;5057408;28;20210;-72
2021/03/11 04:48:00;;;;;;;44.03;23.63;;;;;;;1.76;78.41;99604.16;5056576;28;20200;-70
2021/03/11 04:50:25;;;;;;;47.23;24.17;;;;;;;1.84;77.96;99633.66;5055144;28;20172;-71
2021/03/11 04:52:51;;;;;;;48.77;25.10;;;;;;;1.82;78.43;99604.78;5055155;28;20177;-71
2021/03/11 04:55:17;;;;;;;42.80;24.57;;;;;;;1.81;79.08;99594.31;5055702;28;20524;-71
2021/03/11 04:57:42;;;;;;;45.80;25.13;;;;;;;1.76;79.22;99588.34;5054762;28;20209;-71
2021/03/11 05:00:09;;;;;;;47.37;25.40;;;;;;;1.80;79.55;99595.22;5055373;28;20209;-71
2021/03/11 05:02:34;;;;;;;45.30;25.53;;;;;;;1.72;80.01;99586.75;5054473;28;20532;-72
2021/03/11 05:05:07;;;;;;;46.73;25.93;;;;;;;1.74;81.04;99562.13;5038388;28;20173;-71
2021/03/11 05:07:32;;;;;;;47.23;25.33;;;;;;;1.76;80.01;99591.00;5056118;28;20262;-71
2021/03/11 05:09:58;;;;;;;44.60;26.47;;;;;;;1.74;79.96;99564.75;5040939;28;20176;-71
2021/03/11 05:12:23;;;;;;;44.53;24.30;;;;;;;1.81;80.39;99554.84;5058301;28;20260;-71
2021/03/11 05:14:49;;;;;;;49.93;28.33;;;;;;;1.71;80.70;99546.44;5057063;28;20176;-71
2021/03/11 05:17:14;;;;;;;46.27;26.07;;;;;;;1.79;80.24;99535.63;5056613;28;20193;-70
2021/03/11 05:19:39;;;;;;;48.87;25.00;;;;;;;1.87;80.13;99533.59;5057257;28;20200;-70
2021/03/11 05:22:05;;;;;;;45.77;25.70;;;;;;;1.90;80.58;99524.72;5058257;28;20207;-72
2021/03/11 05:24:30;;;;;;;53.47;27.53;;;;;;;1.82;80.84;99536.38;5057595;28;20225;-72
2021/03/11 05:26:55;;;;;;;51.60;27.27;;;;;;;1.80;80.56;99537.34;5057718;28;20192;-72
2021/03/11 05:29:21;;;;;;;45.17;25.90;;;;;;;1.81;80.88;99539.91;5058456;28;20177;-72
2021/03/11 05:31:46;;;;;;;50.17;27.50;;;;;;;1.79;80.94;99525.09;5058375;28;20179;-72
2021/03/11 05:34:11;;;;;;;48.20;26.80;;;;;;;1.82;80.68;99506.56;5058153;28;20174;-72
2021/03/11 05:36:37;;;;;;;51.63;26.73;;;;;;;1.84;81.10;99502.97;5056228;28;20176;-72
2021/03/11 05:39:04;;;;;;;48.30;27.53;;;;;;;1.82;80.55;99515.31;5056664;28;20203;-71
2021/03/11 05:41:34;;;;;;;48.10;27.03;;;;;;;1.79;81.82;99511.94;5057950;28;20219;-71
2021/03/11 05:43:59;;;;;;;47.80;26.50;;;;;;;1.79;81.70;99480.38;5055553;28;20184;-72
2021/03/11 05:46:25;;;;;;;55.83;27.73;;;;;;;1.83;82.22;99476.72;5057108;28;20180;-72
2021/03/11 05:48:50;;;;;;;52.77;28.67;;;;;;;1.79;81.71;99469.84;5054255;28;20220;-67
2021/03/11 05:51:17;;;;;;;56.23;30.13;;;;;;;1.80;81.57;99474.19;5055989;28;20187;-67
2021/03/11 05:53:42;;;;;;;50.47;28.80;;;;;;;1.77;82.77;99498.00;5055359;28;20254;-66
2021/03/11 05:56:08;;;;;;;50.20;27.70;;;;;;;1.80;82.69;99453.16;5054065;28;20255;-66
2021/03/11 05:58:34;;;;;;;56.07;29.00;;;;;;;1.84;82.52;99457.38;5083750;22;20247;-64
2021/03/11 06:00:59;;;;;;;55.40;28.60;;;;;;;1.89;82.61;99458.09;5073689;28;20575;-64
2021/03/11 06:03:27;;;;;;;50.93;26.27;;;;;;;1.96;82.21;99427.97;5074001;28;20187;-64
2021/03/11 06:05:53;;;;;;;55.67;28.00;;;;;;;1.92;82.80;99426.38;5056946;28;20180;-69
2021/03/11 06:08:21;;;;;;;52.60;27.80;;;;;;;1.88;82.69;99435.31;5053756;28;20192;-70
2021/03/11 06:10:47;;;;;;;48.43;26.10;;;;;;;1.98;82.54;99431.41;5053613;28;20578;-69
2021/03/11 06:13:12;;;;;;;52.97;27.43;;;;;;;1.96;83.04;99406.06;5053481;28;20184;-69
2021/03/11 06:15:39;;;;;;;51.97;27.33;;;;;;;1.96;83.02;99406.91;5053961;28;20183;-69
2021/03/11 06:18:06;;;;;;;50.17;26.97;;;;;;;2.01;82.64;99409.38;5053788;28;20192;-69
2021/03/11 06:20:31;;;;;;;44.10;21.40;;;;;;;2.16;82.23;99403.47;5053392;28;20172;-69
2021/03/11 06:22:56;;;;;;;49.83;28.27;;;;;;;2.06;82.71;99424.03;5053267;28;20235;-70
2021/03/11 06:25:22;;;;;;;55.40;29.03;;;;;;;2.07;82.54;99385.41;5055098;28;20178;-69
2021/03/11 06:27:47;;;;;;;56.30;29.80;;;;;;;2.05;83.23;99388.13;5053309;28;20198;-70
2021/03/11 06:30:30;;;;;;;51.30;27.63;;;;;;;2.06;83.63;99403.00;5054852;28;20178;-69
2021/03/11 06:32:56;;;;;;;49.03;27.80;;;;;;;2.15;82.88;99375.44;5053445;28;20164;-70
2021/03/11 06:35:21;;;;;;;50.30;28.40;;;;;;;2.12;82.74;99378.19;5054559;28;20243;-69
2021/03/11 06:37:50;;;;;;;47.50;26.80;;;;;;;2.17;82.90;99381.47;5053159;28;20193;-70
2021/03/11 06:40:17;;;;;;;49.63;26.63;;;;;;;2.19;82.56;99346.28;5053373;28;20248;-70
2021/03/11 06:42:43;;;;;;;44.60;25.97;;;;;;;2.16;83.82;99358.72;5053199;28;20173;-72
2021/03/11 06:45:21;;;;;;;48.97;26.57;;;;;;;2.19;83.45;99384.91;5053465;28;20250;-71
2021/03/11 06:47:48;;;;;;;46.67;26.00;;;;;;;2.15;83.58;99376.28;5070483;28;20206;-71
2021/03/11 06:50:13;;;;;;;45.80;26.03;;;;;;;2.15;83.32;99342.06;5054224;28;20299;-71
2021/03/11 06:52:39;;;;;;;43.67;23.73;;;;;;;2.26;83.67;99324.97;5053872;28;20635;-71
2021/03/11 06:55:10;;;;;;;40.20;23.73;;;;;;;2.15;83.97;99317.50;5070917;28;20191;-71
2021/03/11 06:57:36;;;;;;;43.10;23.00;;;;;;;2.12;90.16;99342.19;5053081;28;20259;-71
2021/03/11 07:00:16;;;;;;;43.00;21.97;;;;;;;2.12;89.73;99329.03;5054573;28;20165;-71
2021/03/11 07:02:57;;;;;;;49.00;26.40;;;;;;;2.09;88.65;99318.63;5054249;28;20173;-71
2021/03/11 07:05:24;;;;;;;39.73;21.57;;;;;;;2.16;84.41;99306.06;5053543;28;20260;-71
2021/03/11 07:08:08;;;;;;;45.63;26.00;;;;;;;2.09;84.90;99312.50;5053095;28;20283;-71
2021/03/11 07:10:35;;;;;;;44.83;25.27;;;;;;;2.08;85.32;99324.81;5053137;28;20172;-71
2021/03/11 07:13:01;;;;;;;43.63;24.07;;;;;;;2.11;84.39;99295.75;5052770;28;20172;-70
2021/03/11 07:15:28;;;;;;;47.43;25.80;;;;;;;2.11;84.83;99313.31;5052928;28;20542;-71
2021/03/11 07:17:54;;;;;;;51.07;25.37;;;;;;;2.08;85.09;99298.50;5052910;28;20193;-70
2021/03/11 07:20:24;;;;;;;30.40;17.23;;;;;;;2.19;84.30;99258.56;5053918;28;20195;-71
2021/03/11 07:23:04;;;;;;;36.57;20.10;;;;;;;2.22;84.03;99273.34;5069920;28;20189;-70
2021/03/11 07:25:48;;;;;;;44.37;23.07;;;;;;;2.11;85.37;99301.00;5069432;28;20181;-71
2021/03/11 07:28:27;;;;;;;37.77;21.57;;;;;;;2.15;85.01;99297.31;5052604;28;20195;-70
2021/03/11 07:31:00;;;;;;;44.80;24.23;;;;;;;2.11;85.74;99297.50;5052519;28;20172;-70
2021/03/11 07:33:30;;;;;;;41.03;22.33;;;;;;;2.11;85.49;99293.09;5068791;28;20177;-70
2021/03/11 07:35:57;;;;;;;42.27;22.90;;;;;;;2.10;85.84;99303.69;5052456;28;20178;-70
2021/03/11 07:38:25;;;;;;;42.87;23.83;;;;;;;2.06;86.61;99279.28;5052036;28;20629;-71
2021/03/11 07:40:52;;;;;;;41.33;23.67;;;;;;;2.12;86.48;99265.88;5052103;28;20200;-70
2021/03/11 07:43:19;;;;;;;36.73;21.00;;;;;;;2.13;86.46;99274.63;5052142;28;20259;-70
2021/03/11 07:45:44;;;;;;;39.80;23.27;;;;;;;2.09;87.23;99276.53;5052483;28;20181;-70
2021/03/11 07:48:11;;;;;;;38.20;21.73;;;;;;;2.11;87.19;99297.50;5052150;28;20211;-70
2021/03/11 07:50:37;;;;;;;43.77;22.00;;;;;;;2.10;87.73;99272.97;5052146;28;20170;-70
2021/03/11 07:53:04;;;;;;;35.47;22.20;;;;;;;2.12;88.04;99270.28;5051763;28;20270;-70
2021/03/11 07:55:29;;;;;;;37.23;20.27;;;;;;;2.11;88.19;99273.81;5052136;28;20185;-72
2021/03/11 07:57:57;;;;;;;36.30;18.93;;;;;;;2.16;88.33;99271.84;5053631;28;20213;-69
2021/03/11 08:00:27;;;;;;;42.00;21.77;;;;;;;2.11;89.03;99285.22;5052557;28;20186;-70
2021/03/11 08:03:13;;;;;;;47.83;21.80;;;;;;;2.11;89.07;99272.03;5052379;28;20181;-70
2021/03/11 08:05:39;;;;;;;51.87;24.27;;;;;;;2.10;89.73;99280.88;5052311;28;20169;-70
2021/03/11 08:08:17;;;;;;;40.60;20.97;;;;;;;2.18;89.25;99257.69;5052043;28;20196;-72
2021/03/11 08:10:45;;;;;;;42.83;21.53;;;;;;;2.19;89.76;99256.78;5069304;28;20649;-70
2021/03/11 08:13:24;;;;;;;41.33;21.53;;;;;;;2.25;89.69;99239.03;5054083;28;20173;-71
2021/03/11 08:15:50;;;;;;;51.17;22.37;;;;;;;2.22;89.71;99237.34;5070121;28;20174;-71
2021/03/11 08:18:34;;;;;;;38.80;19.87;;;;;;;2.23;89.83;99247.00;5052968;28;20546;-72
2021/03/11 08:21:01;;;;;;;46.13;21.00;;;;;;;2.24;90.17;99225.00;5052891;28;20670;-72
2021/03/11 08:23:30;;;;;;;63.00;23.87;;;;;;;2.25;90.94;99217.97;5051773;28;20187;-72
2021/03/11 08:25:56;;;;;;;46.67;22.00;;;;;;;2.35;90.67;99214.00;5051920;28;20178;-71
2021/03/11 08:28:22;;;;;;;42.37;20.67;;;;;;;2.34;90.40;99209.66;5051352;28;20204;-71
2021/03/11 08:30:49;;;;;;;42.23;21.10;;;;;;;2.38;90.44;99221.75;5068285;28;20189;-71
2021/03/11 08:33:34;;;;;;;37.80;19.77;;;;;;;2.41;90.66;99211.94;5052966;28;20169;-72
2021/03/11 08:36:00;;;;;;;44.87;22.73;;;;;;;2.44;90.91;99208.28;5047730;28;20185;-71
2021/03/11 08:38:31;;;;;;;46.57;21.33;;;;;;;2.43;91.03;99189.00;5051579;28;20246;-72
2021/03/11 08:41:03;;;;;;;42.30;19.00;;;;;;;2.54;90.86;99199.03;5052764;28;20606;-71
2021/03/11 08:43:35;;;;;;;45.10;20.40;;;;;;;2.57;90.89;99198.91;5035100;28;20180;-72
2021/03/11 08:46:04;;;;;;;50.73;21.20;;;;;;;2.64;91.28;99215.31;5052640;28;20182;-71
2021/03/11 08:48:51;;;;;;;38.93;19.67;;;;;;;2.74;91.16;99206.91;5051360;28;20194;-72
2021/03/11 08:51:20;;;;;;;48.63;20.10;;;;;;;2.70;91.20;99200.06;5052684;28;20578;-72
2021/03/11 08:53:51;;;;;;;40.77;19.10;;;;;;;2.75;91.15;99187.53;5052468;28;20170;-73
2021/03/11 08:56:17;;;;;;;38.83;20.30;;;;;;;2.76;91.09;99172.56;5052499;28;20189;-73
2021/03/11 08:58:59;;;;;;;39.20;19.60;;;;;;;2.86;91.15;99163.28;5067919;28;20217;-73
2021/03/11 09:01:43;;;;;;;41.47;20.00;;;;;;;2.83;91.16;99171.34;5050901;28;20288;-74
2021/03/11 09:04:23;;;;;;;44.20;19.03;;;;;;;2.88;90.70;99157.94;5052321;28;20224;-73
2021/03/11 09:07:24;;;;;;;52.17;21.67;;;;;;;2.88;91.63;99135.09;5067920;28;20208;-74
2021/03/11 09:09:51;;;;;;;47.13;21.07;;;;;;;2.98;91.68;99130.25;5048218;28;20182;-74
2021/03/11 09:12:21;;;;;;;41.40;19.80;;;;;;;2.99;91.58;99145.97;5051102;28;20252;-74
2021/03/11 09:14:48;;;;;;;46.23;20.97;;;;;;;3.02;91.67;99113.34;5052063;28;20160;-73
2021/03/11 09:17:15;;;;;;;40.47;18.67;;;;;;;3.09;91.40;99128.78;5054925;28;20245;-74
2021/03/11 09:19:43;;;;;;;42.67;19.63;;;;;;;3.12;91.03;99096.13;5054494;28;20320;-74
2021/03/11 09:22:19;;;;;;;52.83;21.77;;;;;;;3.11;91.55;99091.78;5054571;28;20260;-74
2021/03/11 09:24:57;;;;;;;37.83;19.63;;;;;;;3.28;91.45;99080.38;5054470;28;20178;-74
2021/03/11 09:27:22;;;;;;;39.00;18.47;;;;;;;3.28;91.36;99051.38;5055991;28;20182;-74
2021/03/11 09:29:48;;;;;;;40.03;19.83;;;;;;;3.27;90.99;99084.81;5054990;28;20170;-74
2021/03/11 09:32:15;;;;;;;43.03;20.60;;;;;;;3.28;91.18;99099.69;5054521;28;20205;-74
2021/03/11 09:34:54;;;;;;;47.43;21.43;;;;;;;3.40;91.02;99080.63;5054520;28;20759;-73
2021/03/11 09:37:43;;;;;;;44.43;20.07;;;;;;;3.45;91.13;99083.03;5038090;28;20312;-74
2021/03/11 09:40:10;;;;;;;36.53;19.73;;;;;;;3.54;90.69;99092.25;5054607;28;20238;-73
2021/03/11 09:42:35;;;;;;;37.87;19.13;;;;;;;3.55;90.84;99080.75;5055011;28;20206;-74
2021/03/11 09:45:00;;;;;;;41.47;19.40;;;;;;;3.62;91.08;99047.84;5055121;28;20186;-73
2021/03/11 09:47:29;;;;;;;39.80;19.20;;;;;;;3.64;91.10;99052.09;5054480;28;20174;-75
2021/03/11 09:50:08;;;;;;;38.50;19.90;;;;;;;3.64;91.40;99075.84;5071048;28;20185;-74
2021/03/11 09:52:53;;;;;;;37.30;17.77;;;;;;;3.71;91.26;99057.91;5054115;28;20163;-74
2021/03/11 09:55:18;;;;;;;34.20;18.57;;;;;;;3.71;91.31;99071.09;5054212;28;20173;-74
2021/03/11 09:57:43;;;;;;;35.13;17.43;;;;;;;3.88;91.39;99065.78;5055269;28;20693;-74
2021/03/11 10:00:09;;;;;;;33.93;16.90;;;;;;;3.90;90.86;99041.94;5054788;28;20519;-74
2021/03/11 10:02:45;;;;;;;33.60;17.57;;;;;;;3.82;90.73;99081.97;5071706;28;20251;-73
2021/03/11 10:05:11;;;;;;;38.63;18.80;;;;;;;4.01;91.23;99080.03;5054101;28;20206;-73
2021/03/11 10:07:36;;;;;;;30.20;16.97;;;;;;;4.05;90.83;99054.31;5037387;28;20175;-73
2021/03/11 10:10:02;;;;;;;34.50;17.60;;;;;;;4.28;90.37;99038.06;5054347;28;20197;-73
2021/03/11 10:12:37;;;;;;;33.37;17.17;;;;;;;4.41;90.21;99030.28;5070538;28;20186;-73
2021/03/11 10:15:10;;;;;;;26.47;15.20;;;;;;;4.49;89.20;99036.03;5053868;28;20179;-73
2021/03/11 10:17:37;;;;;;;32.43;16.20;;;;;;;4.60;89.79;99046.84;5055396;28;20171;-73
2021/03/11 10:20:26;;;;;;;28.30;15.63;;;;;;;4.72;89.36;99021.47;5054408;28;20176;-73
2021/03/11 10:22:52;;;;;;;26.20;15.60;;;;;;;4.71;89.85;99020.63;5053767;28;20543;-73
2021/03/11 10:25:18;;;;;;;23.93;14.47;;;;;;;4.88;89.81;99011.75;5057200;28;20560;-73
2021/03/11 10:27:47;;;;;;;23.27;14.73;;;;;;;4.93;89.25;98985.88;5059313;28;20199;-73
2021/03/11 10:30:30;;;;;;;21.33;13.57;;;;;;;4.82;88.10;98993.56;5060712;28;20227;-74
2021/03/11 10:32:57;;;;;;;26.50;14.57;;;;;;;4.77;89.31;98974.50;5061232;28;20242;-72
2021/03/11 10:35:32;;;;;;;20.57;13.63;;;;;;;4.75;88.85;98967.59;5057971;28;20182;-73
2021/03/11 10:38:17;;;;;;;30.37;16.70;;;;;;;4.85;87.96;98968.78;5060202;28;20182;-72
2021/03/11 10:40:43;;;;;;;31.57;17.97;;;;;;;5.33;87.93;98943.81;5056064;28;20202;-72
2021/03/11 10:43:23;;;;;;;30.27;17.57;;;;;;;5.45;86.98;98942.19;5053550;28;20176;-72
2021/03/11 10:45:49;;;;;;;29.03;16.73;;;;;;;5.57;87.61;98938.78;5053631;28;20180;-72
2021/03/11 10:48:14;;;;;;;27.20;15.80;;;;;;;5.59;87.41;98906.00;5053227;28;20229;-72
2021/03/11 10:50:49;;;;;;;26.17;15.20;;;;;;;5.73;86.77;98936.03;5053671;28;20172;-73
2021/03/11 10:53:16;;;;;;;23.03;14.47;;;;;;;5.60;86.11;98935.97;5053774;28;20175;-72
2021/03/11 10:55:43;;;;;;;24.77;15.67;;;;;;;5.65;87.20;98953.25;5053580;28;20237;-71
2021/03/11 10:58:24;;;;;;;28.50;17.37;;;;;;;5.47;87.21;98913.84;5053132;28;20199;-71
2021/03/11 11:00:50;;;;;;;24.80;16.83;;;;;;;5.60;87.94;98914.81;5053928;28;20280;-72
2021/03/11 11:03:20;;;;;;;28.33;16.20;;;;;;;5.45;87.11;98934.25;5054061;28;20583;-72
2021/03/11 11:05:45;;;;;;;27.43;17.47;;;;;;;5.61;87.98;98916.50;5054527;28;20179;-73
2021/03/11 11:08:10;;;;;;;27.70;15.90;;;;;;;5.66;87.10;98909.13;5053881;28;20234;-73
2021/03/11 11:10:36;;;;;;;26.93;17.13;;;;;;;5.76;86.99;98902.28;5071837;28;20282;-71
2021/03/11 11:13:02;;;;;;;26.10;16.23;;;;;;;5.92;86.25;98903.03;5058152;28;20175;-72
2021/03/11 11:15:30;;;;;;;29.23;18.07;;;;;;;5.77;87.46;98914.56;5053564;28;20207;-72
2021/03/11 11:17:56;;;;;;;31.80;18.23;;;;;;;5.69;88.23;98900.13;5053629;28;20195;-71
2021/03/11 11:20:21;;;;;;;30.80;18.93;;;;;;;5.68;88.17;98886.06;5070134;28;20558;-72
2021/03/11 11:22:47;;;;;;;31.93;18.03;;;;;;;5.77;87.96;98885.47;5053548;28;20690;-72
2021/03/11 11:25:12;;;;;;;25.40;16.90;;;;;;;5.83;87.62;98871.81;5054514;28;20183;-72
2021/03/11 11:27:38;;;;;;;24.77;16.70;;;;;;;5.98;88.33;98877.13;5053261;28;20225;-72
2021/03/11 11:30:07;;;;;;;28.80;17.37;;;;;;;6.11;87.53;98862.13;5054795;28;20222;-72